PWSweather.com
Personal Weather Stations
Station Observations
KMICHEBO10
Cordwood Point, Lake Huron, Cheboygan, MI 49721

Cordwood Point, Lake HuronCheboygan, MI 49721

Lat: 45.663372, Lon: -84.3327789

Elevation: 584

Station Type: Davis Vantage Pro2 Wireless

https://www.lakehuronweather.org

High Low Average
Temperature 34.4°F1.3°C 28.5°F-1.9°C 30.9°F-0.6°C
Dew Point 33.6°F0.9°C 27.1°F-2.7°C 29.6°F-1.3°C
Winds 9.2 mph 14.8 kmh 1.2 mph 1.9 kmh 5.0 mph E8.0 kmh E
Wind Gusts 21.9 mph35.2 kmh 2.3 mph3.7 kmh 9.0 mph14.5 kmh
Humidity 97% 90% 95%
Pressure 30.04 in1017.3 mb 29.57 in1001.4 mb -
Precipitation 0.00 in0.0 mm - -
Hour Temp Dew Point Humidity Winds Wind Gusts Pressure Precip Precip Rate Daily Precip Total
12:00 AM 33.7°F0.9°C 32.7°F0.4°C 96% Calm Calm 1.2 mph1.9 kmh 30.03 in1016.9 mb - 0.00 in0.0 mm 0.00 in0.0 mm
12:10 AM 33.7°F0.9°C 32.7°F0.4°C 96% 2.3 mph E3.7 kmh E 3.5 mph5.6 kmh 30.02 in1016.6 mb - 0.00 in0.0 mm 0.00 in0.0 mm
12:20 AM 33.7°F0.9°C 32.9°F0.5°C 97% 1.2 mph E1.9 kmh E 3.5 mph5.6 kmh 30.03 in1016.9 mb - 0.00 in0.0 mm 0.00 in0.0 mm
12:30 AM 33.6°F0.9°C 32.9°F0.5°C 97% 1.2 mph E1.9 kmh E 5.8 mph9.3 kmh 30.03 in1016.9 mb - 0.00 in0.0 mm 0.00 in0.0 mm
12:40 AM 33.6°F0.9°C 32.8°F0.4°C 97% 2.3 mph ENE3.7 kmh ENE 3.5 mph5.6 kmh 30.02 in1016.6 mb - 0.00 in0.0 mm 0.00 in0.0 mm
12:50 AM 33.7°F0.9°C 32.9°F0.5°C 97% Calm Calm 1.2 mph1.9 kmh 30.03 in1016.9 mb - 0.00 in0.0 mm 0.00 in0.0 mm
01:00 AM 33.7°F0.9°C 32.9°F0.5°C 97% 1.2 mph E1.9 kmh E 3.5 mph5.6 kmh 30.03 in1016.9 mb - 0.00 in0.0 mm 0.00 in0.0 mm
01:10 AM 33.8°F1.0°C 33.0°F0.6°C 97% 1.2 mph E1.9 kmh E 4.6 mph7.4 kmh 30.03 in1016.9 mb - 0.00 in0.0 mm 0.00 in0.0 mm
01:20 AM 33.8°F1.0°C 33.0°F0.6°C 97% 1.2 mph E1.9 kmh E 2.3 mph3.7 kmh 30.03 in1016.9 mb - 0.00 in0.0 mm 0.00 in0.0 mm
01:30 AM 33.9°F1.1°C 33.1°F0.6°C 97% 2.3 mph E3.7 kmh E 5.8 mph9.3 kmh 30.02 in1016.6 mb - 0.00 in0.0 mm 0.00 in0.0 mm
01:40 AM 33.9°F1.1°C 33.1°F0.6°C 97% 1.2 mph SE1.9 kmh SE 2.3 mph3.7 kmh 30.02 in1016.6 mb - 0.00 in0.0 mm 0.00 in0.0 mm
01:50 AM 33.9°F1.1°C 33.1°F0.6°C 97% 1.2 mph E1.9 kmh E 5.8 mph9.3 kmh 30.02 in1016.6 mb - 0.00 in0.0 mm 0.00 in0.0 mm
02:00 AM 33.8°F1.0°C 33.0°F0.6°C 97% 2.3 mph E3.7 kmh E 4.6 mph7.4 kmh 30.02 in1016.6 mb - 0.00 in0.0 mm 0.00 in0.0 mm
02:10 AM 33.9°F1.1°C 33.1°F0.6°C 97% 1.2 mph E1.9 kmh E 3.5 mph5.6 kmh 30.02 in1016.6 mb - 0.00 in0.0 mm 0.00 in0.0 mm
02:20 AM 33.9°F1.1°C 33.2°F0.7°C 97% 3.5 mph E5.6 kmh E 5.8 mph9.3 kmh 30.02 in1016.6 mb - 0.00 in0.0 mm 0.00 in0.0 mm
02:30 AM 34.0°F1.1°C 33.2°F0.7°C 97% 4.6 mph E7.4 kmh E 5.8 mph9.3 kmh 30.02 in1016.6 mb - 0.00 in0.0 mm 0.00 in0.0 mm
02:40 AM 34.0°F1.1°C 33.2°F0.7°C 97% 2.3 mph E3.7 kmh E 5.8 mph9.3 kmh 30.02 in1016.6 mb - 0.00 in0.0 mm 0.00 in0.0 mm
02:50 AM 34.1°F1.2°C 33.3°F0.7°C 97% 4.6 mph ENE7.4 kmh ENE 6.9 mph11.1 kmh 30.02 in1016.6 mb - 0.00 in0.0 mm 0.00 in0.0 mm
03:00 AM 34.1°F1.2°C 33.3°F0.7°C 97% 2.3 mph E3.7 kmh E 5.8 mph9.3 kmh 30.02 in1016.6 mb - 0.00 in0.0 mm 0.00 in0.0 mm
03:10 AM 34.2°F1.2°C 33.4°F0.8°C 97% 2.3 mph E3.7 kmh E 9.2 mph14.8 kmh 30.01 in1016.3 mb - 0.00 in0.0 mm 0.00 in0.0 mm
03:20 AM 34.3°F1.3°C 33.5°F0.8°C 97% 3.5 mph E5.6 kmh E 4.6 mph7.4 kmh 30.02 in1016.6 mb - 0.00 in0.0 mm 0.00 in0.0 mm
03:30 AM 34.3°F1.3°C 33.6°F0.9°C 97% 3.5 mph ENE5.6 kmh ENE 4.6 mph7.4 kmh 30.02 in1016.6 mb - 0.00 in0.0 mm 0.00 in0.0 mm
03:40 AM 34.4°F1.3°C 33.6°F0.9°C 97% 2.3 mph ESE3.7 kmh ESE 6.9 mph11.1 kmh 30.03 in1016.9 mb - 0.00 in0.0 mm 0.00 in0.0 mm
03:50 AM 34.4°F1.3°C 33.6°F0.9°C 97% 2.3 mph E3.7 kmh E 6.9 mph11.1 kmh 30.03 in1016.9 mb - 0.00 in0.0 mm 0.00 in0.0 mm
04:00 AM 34.3°F1.3°C 33.5°F0.8°C 97% 3.5 mph ENE5.6 kmh ENE 6.9 mph11.1 kmh 30.04 in1017.3 mb - 0.00 in0.0 mm 0.00 in0.0 mm
04:10 AM 34.3°F1.3°C 33.5°F0.8°C 97% 3.5 mph E5.6 kmh E 11.5 mph18.5 kmh 30.03 in1016.9 mb - 0.00 in0.0 mm 0.00 in0.0 mm
04:20 AM 34.3°F1.3°C 33.5°F0.8°C 97% 3.5 mph E5.6 kmh E 9.2 mph14.8 kmh 30.03 in1016.9 mb - 0.00 in0.0 mm 0.00 in0.0 mm
04:30 AM 34.3°F1.3°C 33.5°F0.8°C 97% 2.3 mph E3.7 kmh E 5.8 mph9.3 kmh 30.03 in1016.9 mb - 0.00 in0.0 mm 0.00 in0.0 mm
04:40 AM 34.2°F1.2°C 33.5°F0.8°C 97% 4.6 mph ENE7.4 kmh ENE 6.9 mph11.1 kmh 30.03 in1016.9 mb - 0.00 in0.0 mm 0.00 in0.0 mm
04:50 AM 34.2°F1.2°C 33.4°F0.8°C 97% 2.3 mph ENE3.7 kmh ENE 2.3 mph3.7 kmh 30.03 in1016.9 mb - 0.00 in0.0 mm 0.00 in0.0 mm
05:00 AM 34.1°F1.2°C 33.3°F0.7°C 97% 3.5 mph E5.6 kmh E 5.8 mph9.3 kmh 30.03 in1016.9 mb - 0.00 in0.0 mm 0.00 in0.0 mm
05:10 AM 34.0°F1.1°C 33.2°F0.7°C 97% 5.8 mph ESE9.3 kmh ESE 4.6 mph7.4 kmh 30.02 in1016.6 mb - 0.00 in0.0 mm 0.00 in0.0 mm
05:20 AM 34.0°F1.1°C 33.2°F0.7°C 97% 6.9 mph E11.1 kmh E 11.5 mph18.5 kmh 30.02 in1016.6 mb - 0.00 in0.0 mm 0.00 in0.0 mm
05:30 AM 33.9°F1.1°C 33.2°F0.7°C 97% 3.5 mph E5.6 kmh E 3.5 mph5.6 kmh 30.01 in1016.3 mb - 0.00 in0.0 mm 0.00 in0.0 mm
05:40 AM 34.0°F1.1°C 33.2°F0.7°C 97% 4.6 mph ENE7.4 kmh ENE 5.8 mph9.3 kmh 30.02 in1016.6 mb - 0.00 in0.0 mm 0.00 in0.0 mm
05:50 AM 33.9°F1.1°C 33.2°F0.7°C 97% 4.6 mph ESE7.4 kmh ESE 8.1 mph13.0 kmh 30.01 in1016.3 mb - 0.00 in0.0 mm 0.00 in0.0 mm
06:00 AM 33.9°F1.1°C 33.1°F0.6°C 97% 4.6 mph E7.4 kmh E 5.8 mph9.3 kmh 30.01 in1016.3 mb - 0.00 in0.0 mm 0.00 in0.0 mm
06:10 AM 33.9°F1.1°C 33.1°F0.6°C 97% 2.3 mph E3.7 kmh E 9.2 mph14.8 kmh 30.02 in1016.6 mb - 0.00 in0.0 mm 0.00 in0.0 mm
06:20 AM 33.9°F1.1°C 33.1°F0.6°C 97% 2.3 mph ENE3.7 kmh ENE 3.5 mph5.6 kmh 30.02 in1016.6 mb - 0.00 in0.0 mm 0.00 in0.0 mm
06:30 AM 33.9°F1.1°C 33.1°F0.6°C 97% 4.6 mph SE7.4 kmh SE 5.8 mph9.3 kmh 30.02 in1016.6 mb - 0.00 in0.0 mm 0.00 in0.0 mm
06:40 AM 33.7°F0.9°C 32.9°F0.5°C 97% 5.8 mph E9.3 kmh E 10.4 mph16.7 kmh 30.02 in1016.6 mb - 0.00 in0.0 mm 0.00 in0.0 mm
06:50 AM 33.5°F0.8°C 32.7°F0.4°C 97% 6.9 mph E11.1 kmh E 13.8 mph22.2 kmh 30.01 in1016.3 mb - 0.00 in0.0 mm 0.00 in0.0 mm
07:00 AM 33.4°F0.8°C 32.7°F0.4°C 97% 5.8 mph E9.3 kmh E 11.5 mph18.5 kmh 30.01 in1016.3 mb - 0.00 in0.0 mm 0.00 in0.0 mm
07:10 AM 33.4°F0.8°C 32.6°F0.3°C 97% 4.6 mph ESE7.4 kmh ESE 6.9 mph11.1 kmh 30.01 in1016.3 mb - 0.00 in0.0 mm 0.00 in0.0 mm
07:20 AM 33.2°F0.7°C 32.4°F0.2°C 97% 5.8 mph ESE9.3 kmh ESE 8.1 mph13.0 kmh 30.02 in1016.6 mb - 0.00 in0.0 mm 0.00 in0.0 mm
07:30 AM 33.1°F0.6°C 32.1°F0.1°C 96% 6.9 mph E11.1 kmh E 15.0 mph24.1 kmh 30.01 in1016.3 mb - 0.00 in0.0 mm 0.00 in0.0 mm
07:40 AM 33.1°F0.6°C 32.1°F0.1°C 96% 3.5 mph E5.6 kmh E 5.8 mph9.3 kmh 30.01 in1016.3 mb - 0.00 in0.0 mm 0.00 in0.0 mm
07:50 AM 33.0°F0.6°C 32.0°F0.0°C 96% 5.8 mph E9.3 kmh E 11.5 mph18.5 kmh 30.01 in1016.3 mb - 0.00 in0.0 mm 0.00 in0.0 mm
08:00 AM 33.0°F0.6°C 31.7°F-0.2°C 95% 4.6 mph E7.4 kmh E 6.9 mph11.1 kmh 30.02 in1016.6 mb - 0.00 in0.0 mm 0.00 in0.0 mm
08:10 AM 32.9°F0.5°C 31.6°F-0.2°C 95% 5.8 mph E9.3 kmh E 11.5 mph18.5 kmh 30.01 in1016.3 mb - 0.00 in0.0 mm 0.00 in0.0 mm
08:20 AM 32.7°F0.4°C 31.2°F-0.4°C 94% 4.6 mph E7.4 kmh E 11.5 mph18.5 kmh 30.00 in1015.9 mb - 0.00 in0.0 mm 0.00 in0.0 mm
08:30 AM 32.6°F0.3°C 31.1°F-0.5°C 94% 5.8 mph E9.3 kmh E 11.5 mph18.5 kmh 30.00 in1015.9 mb - 0.00 in0.0 mm 0.00 in0.0 mm
08:40 AM 32.5°F0.3°C 30.7°F-0.7°C 93% 6.9 mph E11.1 kmh E 11.5 mph18.5 kmh 29.99 in1015.6 mb - 0.00 in0.0 mm 0.00 in0.0 mm
08:50 AM 32.3°F0.2°C 30.5°F-0.8°C 93% 5.8 mph E9.3 kmh E 11.5 mph18.5 kmh 29.99 in1015.6 mb - 0.00 in0.0 mm 0.00 in0.0 mm
09:00 AM 32.1°F0.1°C 30.0°F-1.1°C 92% 6.9 mph E11.1 kmh E 19.6 mph31.5 kmh 29.99 in1015.6 mb - 0.00 in0.0 mm 0.00 in0.0 mm
09:10 AM 31.9°F-0.1°C 29.9°F-1.2°C 92% 4.6 mph ESE7.4 kmh ESE 10.4 mph16.7 kmh 29.99 in1015.6 mb - 0.00 in0.0 mm 0.00 in0.0 mm
09:20 AM 31.8°F-0.1°C 29.5°F-1.4°C 91% 4.6 mph E7.4 kmh E 8.1 mph13.0 kmh 29.99 in1015.6 mb - 0.00 in0.0 mm 0.00 in0.0 mm
09:30 AM 31.7°F-0.2°C 29.4°F-1.4°C 91% 5.8 mph ESE9.3 kmh ESE 8.1 mph13.0 kmh 30.00 in1015.9 mb - 0.00 in0.0 mm 0.00 in0.0 mm
09:40 AM 31.5°F-0.3°C 29.4°F-1.4°C 92% 2.3 mph E3.7 kmh E 3.5 mph5.6 kmh 29.99 in1015.6 mb - 0.00 in0.0 mm 0.00 in0.0 mm
09:50 AM 31.3°F-0.4°C 29.0°F-1.7°C 91% 3.5 mph NE5.6 kmh NE 4.6 mph7.4 kmh 29.99 in1015.6 mb - 0.00 in0.0 mm 0.00 in0.0 mm
10:00 AM 31.2°F-0.4°C 29.1°F-1.6°C 92% 5.8 mph E9.3 kmh E 4.6 mph7.4 kmh 30.00 in1015.9 mb - 0.00 in0.0 mm 0.00 in0.0 mm
10:10 AM 31.2°F-0.4°C 28.9°F-1.7°C 91% 5.8 mph E9.3 kmh E 8.1 mph13.0 kmh 30.00 in1015.9 mb - 0.00 in0.0 mm 0.00 in0.0 mm
10:20 AM 31.0°F-0.6°C 28.7°F-1.8°C 91% 5.8 mph E9.3 kmh E 11.5 mph18.5 kmh 30.00 in1015.9 mb - 0.00 in0.0 mm 0.00 in0.0 mm
10:30 AM 30.9°F-0.6°C 28.6°F-1.9°C 91% 5.8 mph ENE9.3 kmh ENE 10.4 mph16.7 kmh 29.99 in1015.6 mb - 0.00 in0.0 mm 0.00 in0.0 mm
10:40 AM 30.6°F-0.8°C 28.0°F-2.2°C 90% 6.9 mph E11.1 kmh E 9.2 mph14.8 kmh 29.99 in1015.6 mb - 0.00 in0.0 mm 0.00 in0.0 mm
10:50 AM 30.6°F-0.8°C 28.0°F-2.2°C 90% 6.9 mph ENE11.1 kmh ENE 16.1 mph25.9 kmh 29.98 in1015.2 mb - 0.00 in0.0 mm 0.00 in0.0 mm
11:00 AM 30.5°F-0.8°C 27.9°F-2.3°C 90% 6.9 mph E11.1 kmh E 10.4 mph16.7 kmh 29.98 in1015.2 mb - 0.00 in0.0 mm 0.00 in0.0 mm
11:10 AM 30.5°F-0.8°C 27.9°F-2.3°C 90% 5.8 mph E9.3 kmh E 12.7 mph20.4 kmh 29.97 in1014.9 mb - 0.00 in0.0 mm 0.00 in0.0 mm
11:20 AM 30.3°F-0.9°C 27.7°F-2.4°C 90% 4.6 mph E7.4 kmh E 9.2 mph14.8 kmh 29.96 in1014.6 mb - 0.00 in0.0 mm 0.00 in0.0 mm
11:30 AM 30.3°F-0.9°C 27.7°F-2.4°C 90% 3.5 mph E5.6 kmh E 6.9 mph11.1 kmh 29.96 in1014.6 mb - 0.00 in0.0 mm 0.00 in0.0 mm
11:40 AM 30.2°F-1.0°C 27.9°F-2.3°C 91% 6.9 mph E11.1 kmh E 11.5 mph18.5 kmh 29.96 in1014.6 mb - 0.00 in0.0 mm 0.00 in0.0 mm
11:50 AM 30.1°F-1.1°C 27.8°F-2.3°C 91% 5.8 mph ENE9.3 kmh ENE 11.5 mph18.5 kmh 29.95 in1014.2 mb - 0.00 in0.0 mm 0.00 in0.0 mm
12:00 PM 30.0°F-1.1°C 27.7°F-2.4°C 91% 5.8 mph E9.3 kmh E 10.4 mph16.7 kmh 29.95 in1014.2 mb - 0.00 in0.0 mm 0.00 in0.0 mm
12:10 PM 29.8°F-1.2°C 27.2°F-2.7°C 90% 3.5 mph ENE5.6 kmh ENE 5.8 mph9.3 kmh 29.95 in1014.2 mb - 0.00 in0.0 mm 0.00 in0.0 mm
12:20 PM 29.7°F-1.3°C 27.1°F-2.7°C 90% 8.1 mph E13.0 kmh E 11.5 mph18.5 kmh 29.94 in1013.9 mb - 0.00 in0.0 mm 0.00 in0.0 mm
12:30 PM 29.6°F-1.3°C 27.3°F-2.6°C 91% 6.9 mph E11.1 kmh E 16.1 mph25.9 kmh 29.94 in1013.9 mb - 0.00 in0.0 mm 0.00 in0.0 mm
12:40 PM 29.6°F-1.3°C 27.3°F-2.6°C 91% 6.9 mph E11.1 kmh E 9.2 mph14.8 kmh 29.93 in1013.5 mb - 0.00 in0.0 mm 0.00 in0.0 mm
12:50 PM 29.5°F-1.4°C 27.2°F-2.7°C 91% 5.8 mph E9.3 kmh E 6.9 mph11.1 kmh 29.92 in1013.2 mb - 0.00 in0.0 mm 0.00 in0.0 mm
01:00 PM 29.5°F-1.4°C 27.2°F-2.7°C 91% 5.8 mph NE9.3 kmh NE 12.7 mph20.4 kmh 29.91 in1012.9 mb - 0.00 in0.0 mm 0.00 in0.0 mm
01:10 PM 29.5°F-1.4°C 27.5°F-2.5°C 92% 6.9 mph E11.1 kmh E 10.4 mph16.7 kmh 29.89 in1012.2 mb - 0.00 in0.0 mm 0.00 in0.0 mm
01:20 PM 29.3°F-1.5°C 27.5°F-2.5°C 93% 5.8 mph ENE9.3 kmh ENE 10.4 mph16.7 kmh 29.88 in1011.9 mb - 0.00 in0.0 mm 0.00 in0.0 mm
01:30 PM 29.1°F-1.6°C 27.4°F-2.6°C 93% 5.8 mph ENE9.3 kmh ENE 19.6 mph31.5 kmh 29.87 in1011.5 mb - 0.00 in0.0 mm 0.00 in0.0 mm
01:40 PM 29.1°F-1.6°C 27.6°F-2.4°C 94% 4.6 mph ENE7.4 kmh ENE 11.5 mph18.5 kmh 29.86 in1011.2 mb - 0.00 in0.0 mm 0.00 in0.0 mm
01:50 PM 29.2°F-1.6°C 27.7°F-2.4°C 94% 5.8 mph ENE9.3 kmh ENE 10.4 mph16.7 kmh 29.85 in1010.8 mb - 0.00 in0.0 mm 0.00 in0.0 mm
02:00 PM 29.1°F-1.6°C 27.6°F-2.4°C 94% 5.8 mph ENE9.3 kmh ENE 11.5 mph18.5 kmh 29.84 in1010.5 mb - 0.00 in0.0 mm 0.00 in0.0 mm
02:10 PM 29.0°F-1.7°C 27.5°F-2.5°C 94% 4.6 mph ENE7.4 kmh ENE 8.1 mph13.0 kmh 29.83 in1010.2 mb - 0.00 in0.0 mm 0.00 in0.0 mm
02:20 PM 29.2°F-1.6°C 27.9°F-2.3°C 95% 5.8 mph ENE9.3 kmh ENE 9.2 mph14.8 kmh 29.82 in1009.8 mb - 0.00 in0.0 mm 0.00 in0.0 mm
02:30 PM 29.0°F-1.7°C 27.5°F-2.5°C 94% 5.8 mph E9.3 kmh E 8.1 mph13.0 kmh 29.79 in1008.8 mb - 0.00 in0.0 mm 0.00 in0.0 mm
02:40 PM 29.1°F-1.6°C 27.8°F-2.3°C 95% 6.9 mph ENE11.1 kmh ENE 9.2 mph14.8 kmh 29.78 in1008.5 mb - 0.00 in0.0 mm 0.00 in0.0 mm
02:50 PM 29.3°F-1.5°C 28.0°F-2.2°C 95% 8.1 mph ENE13.0 kmh ENE 18.4 mph29.6 kmh 29.77 in1008.1 mb - 0.00 in0.0 mm 0.00 in0.0 mm
03:00 PM 29.2°F-1.6°C 27.9°F-2.3°C 95% 4.6 mph E7.4 kmh E 6.9 mph11.1 kmh 29.78 in1008.5 mb - 0.00 in0.0 mm 0.00 in0.0 mm
03:10 PM 29.2°F-1.6°C 27.9°F-2.3°C 95% 5.8 mph E9.3 kmh E 10.4 mph16.7 kmh 29.78 in1008.5 mb - 0.00 in0.0 mm 0.00 in0.0 mm
03:20 PM 29.2°F-1.6°C 27.9°F-2.3°C 95% 5.8 mph ENE9.3 kmh ENE 9.2 mph14.8 kmh 29.78 in1008.5 mb - 0.00 in0.0 mm 0.00 in0.0 mm
03:30 PM 29.4°F-1.4°C 28.1°F-2.2°C 95% 4.6 mph E7.4 kmh E 8.1 mph13.0 kmh 29.77 in1008.1 mb - 0.00 in0.0 mm 0.00 in0.0 mm
03:40 PM 29.4°F-1.4°C 28.1°F-2.2°C 95% 4.6 mph ENE7.4 kmh ENE 9.2 mph14.8 kmh 29.77 in1008.1 mb - 0.00 in0.0 mm 0.00 in0.0 mm
03:50 PM 29.4°F-1.4°C 28.2°F-2.1°C 95% 5.8 mph ENE9.3 kmh ENE 10.4 mph16.7 kmh 29.75 in1007.5 mb - 0.00 in0.0 mm 0.00 in0.0 mm
04:00 PM 29.5°F-1.4°C 28.5°F-1.9°C 96% 5.8 mph ENE9.3 kmh ENE 6.9 mph11.1 kmh 29.75 in1007.5 mb - 0.00 in0.0 mm 0.00 in0.0 mm
04:10 PM 29.3°F-1.5°C 28.3°F-2.1°C 96% 6.9 mph ENE11.1 kmh ENE 12.7 mph20.4 kmh 29.77 in1008.1 mb - 0.00 in0.0 mm 0.00 in0.0 mm
04:20 PM 29.3°F-1.5°C 28.3°F-2.1°C 96% 4.6 mph ENE7.4 kmh ENE 3.5 mph5.6 kmh 29.76 in1007.8 mb - 0.00 in0.0 mm 0.00 in0.0 mm
04:30 PM 29.5°F-1.4°C 28.5°F-1.9°C 96% 6.9 mph E11.1 kmh E 11.5 mph18.5 kmh 29.75 in1007.5 mb - 0.00 in0.0 mm 0.00 in0.0 mm
04:40 PM 29.7°F-1.3°C 28.7°F-1.8°C 96% 8.1 mph ENE13.0 kmh ENE 15.0 mph24.1 kmh 29.73 in1006.8 mb - 0.00 in0.0 mm 0.00 in0.0 mm
04:50 PM 29.7°F-1.3°C 28.7°F-1.8°C 96% 5.8 mph E9.3 kmh E 16.1 mph25.9 kmh 29.73 in1006.8 mb - 0.00 in0.0 mm 0.00 in0.0 mm
05:00 PM 29.7°F-1.3°C 28.4°F-2.0°C 95% 5.8 mph E9.3 kmh E 11.5 mph18.5 kmh 29.73 in1006.8 mb - 0.00 in0.0 mm 0.00 in0.0 mm
05:10 PM 29.6°F-1.3°C 28.3°F-2.1°C 95% 5.8 mph ENE9.3 kmh ENE 10.4 mph16.7 kmh 29.72 in1006.4 mb - 0.00 in0.0 mm 0.00 in0.0 mm
05:20 PM 29.6°F-1.3°C 28.3°F-2.1°C 95% 6.9 mph ENE11.1 kmh ENE 9.2 mph14.8 kmh 29.71 in1006.1 mb - 0.00 in0.0 mm 0.00 in0.0 mm
05:30 PM 29.4°F-1.4°C 28.1°F-2.2°C 95% 4.6 mph ENE7.4 kmh ENE 5.8 mph9.3 kmh 29.71 in1006.1 mb - 0.00 in0.0 mm 0.00 in0.0 mm
05:40 PM 29.3°F-1.5°C 28.0°F-2.2°C 95% 5.8 mph ENE9.3 kmh ENE 6.9 mph11.1 kmh 29.71 in1006.1 mb - 0.00 in0.0 mm 0.00 in0.0 mm
05:50 PM 29.0°F-1.7°C 27.8°F-2.3°C 95% 9.2 mph E14.8 kmh E 16.1 mph25.9 kmh 29.70 in1005.8 mb - 0.00 in0.0 mm 0.00 in0.0 mm
06:00 PM 29.0°F-1.7°C 27.7°F-2.4°C 95% 9.2 mph E14.8 kmh E 19.6 mph31.5 kmh 29.70 in1005.8 mb - 0.00 in0.0 mm 0.00 in0.0 mm
06:10 PM 29.0°F-1.7°C 27.7°F-2.4°C 95% 8.1 mph E13.0 kmh E 13.8 mph22.2 kmh 29.70 in1005.8 mb - 0.00 in0.0 mm 0.00 in0.0 mm
06:20 PM 29.0°F-1.7°C 27.5°F-2.5°C 94% 6.9 mph E11.1 kmh E 9.2 mph14.8 kmh 29.69 in1005.4 mb - 0.00 in0.0 mm 0.00 in0.0 mm
06:30 PM 28.9°F-1.7°C 27.4°F-2.6°C 94% 5.8 mph E9.3 kmh E 10.4 mph16.7 kmh 29.69 in1005.4 mb - 0.00 in0.0 mm 0.00 in0.0 mm
06:40 PM 29.0°F-1.7°C 27.7°F-2.4°C 95% 8.1 mph ENE13.0 kmh ENE 11.5 mph18.5 kmh 29.69 in1005.4 mb - 0.00 in0.0 mm 0.00 in0.0 mm
06:50 PM 29.1°F-1.6°C 27.8°F-2.3°C 95% 8.1 mph E13.0 kmh E 13.8 mph22.2 kmh 29.69 in1005.4 mb - 0.00 in0.0 mm 0.00 in0.0 mm
07:00 PM 28.9°F-1.7°C 27.4°F-2.6°C 94% 6.9 mph ENE11.1 kmh ENE 11.5 mph18.5 kmh 29.68 in1005.1 mb - 0.00 in0.0 mm 0.00 in0.0 mm
07:10 PM 28.9°F-1.7°C 27.4°F-2.6°C 94% 5.8 mph E9.3 kmh E 9.2 mph14.8 kmh 29.69 in1005.4 mb - 0.00 in0.0 mm 0.00 in0.0 mm
07:20 PM 29.0°F-1.7°C 27.7°F-2.4°C 95% 9.2 mph E14.8 kmh E 12.7 mph20.4 kmh 29.68 in1005.1 mb - 0.00 in0.0 mm 0.00 in0.0 mm
07:30 PM 29.1°F-1.6°C 27.8°F-2.3°C 95% 8.1 mph E13.0 kmh E 21.9 mph35.2 kmh 29.68 in1005.1 mb - 0.00 in0.0 mm 0.00 in0.0 mm
07:40 PM 29.3°F-1.5°C 28.0°F-2.2°C 95% 8.1 mph E13.0 kmh E 11.5 mph18.5 kmh 29.68 in1005.1 mb - 0.00 in0.0 mm 0.00 in0.0 mm
07:50 PM 29.4°F-1.4°C 28.2°F-2.1°C 95% 6.9 mph E11.1 kmh E 11.5 mph18.5 kmh 29.68 in1005.1 mb - 0.00 in0.0 mm 0.00 in0.0 mm
08:00 PM 29.5°F-1.4°C 28.2°F-2.1°C 95% 8.1 mph E13.0 kmh E 11.5 mph18.5 kmh 29.67 in1004.7 mb - 0.00 in0.0 mm 0.00 in0.0 mm
08:10 PM 29.3°F-1.5°C 28.0°F-2.2°C 95% 5.8 mph E9.3 kmh E 9.2 mph14.8 kmh 29.67 in1004.7 mb - 0.00 in0.0 mm 0.00 in0.0 mm
08:20 PM 29.3°F-1.5°C 28.0°F-2.2°C 95% 5.8 mph NE9.3 kmh NE 11.5 mph18.5 kmh 29.67 in1004.7 mb - 0.00 in0.0 mm 0.00 in0.0 mm
08:30 PM 29.3°F-1.5°C 28.0°F-2.2°C 95% 4.6 mph ENE7.4 kmh ENE 9.2 mph14.8 kmh 29.66 in1004.4 mb - 0.00 in0.0 mm 0.00 in0.0 mm
08:40 PM 29.2°F-1.6°C 28.0°F-2.2°C 95% 4.6 mph E7.4 kmh E 11.5 mph18.5 kmh 29.66 in1004.4 mb - 0.00 in0.0 mm 0.00 in0.0 mm
08:50 PM 29.3°F-1.5°C 28.0°F-2.2°C 95% 6.9 mph E11.1 kmh E 10.4 mph16.7 kmh 29.65 in1004.1 mb - 0.00 in0.0 mm 0.00 in0.0 mm
09:00 PM 29.4°F-1.4°C 28.1°F-2.2°C 95% 6.9 mph E11.1 kmh E 11.5 mph18.5 kmh 29.64 in1003.7 mb - 0.00 in0.0 mm 0.00 in0.0 mm
09:10 PM 29.4°F-1.4°C 28.1°F-2.2°C 95% 4.6 mph ENE7.4 kmh ENE 6.9 mph11.1 kmh 29.64 in1003.7 mb - 0.00 in0.0 mm 0.00 in0.0 mm
09:20 PM 29.4°F-1.4°C 28.1°F-2.2°C 95% 5.8 mph NE9.3 kmh NE 8.1 mph13.0 kmh 29.63 in1003.4 mb - 0.00 in0.0 mm 0.00 in0.0 mm
09:30 PM 29.3°F-1.5°C 28.0°F-2.2°C 95% 6.9 mph ENE11.1 kmh ENE 16.1 mph25.9 kmh 29.62 in1003.0 mb - 0.00 in0.0 mm 0.00 in0.0 mm
09:40 PM 29.0°F-1.7°C 27.5°F-2.5°C 94% 5.8 mph ENE9.3 kmh ENE 15.0 mph24.1 kmh 29.63 in1003.4 mb - 0.00 in0.0 mm 0.00 in0.0 mm
09:50 PM 28.8°F-1.8°C 27.3°F-2.6°C 94% 6.9 mph ENE11.1 kmh ENE 11.5 mph18.5 kmh 29.63 in1003.4 mb - 0.00 in0.0 mm 0.00 in0.0 mm
10:00 PM 28.8°F-1.8°C 27.5°F-2.5°C 95% 6.9 mph ENE11.1 kmh ENE 11.5 mph18.5 kmh 29.62 in1003.0 mb - 0.00 in0.0 mm 0.00 in0.0 mm
10:10 PM 28.9°F-1.7°C 27.6°F-2.4°C 95% 5.8 mph ENE9.3 kmh ENE 10.4 mph16.7 kmh 29.61 in1002.7 mb - 0.00 in0.0 mm 0.00 in0.0 mm
10:20 PM 28.9°F-1.7°C 27.6°F-2.4°C 95% 5.8 mph E9.3 kmh E 6.9 mph11.1 kmh 29.60 in1002.4 mb - 0.00 in0.0 mm 0.00 in0.0 mm
10:30 PM 28.8°F-1.8°C 27.5°F-2.5°C 95% 6.9 mph E11.1 kmh E 11.5 mph18.5 kmh 29.61 in1002.7 mb - 0.00 in0.0 mm 0.00 in0.0 mm
10:40 PM 28.7°F-1.8°C 27.4°F-2.6°C 95% 6.9 mph E11.1 kmh E 8.1 mph13.0 kmh 29.60 in1002.4 mb - 0.00 in0.0 mm 0.00 in0.0 mm
10:50 PM 28.7°F-1.8°C 27.4°F-2.6°C 95% 4.6 mph E7.4 kmh E 8.1 mph13.0 kmh 29.60 in1002.4 mb - 0.00 in0.0 mm 0.00 in0.0 mm
11:00 PM 28.9°F-1.7°C 27.6°F-2.4°C 95% 5.8 mph E9.3 kmh E 9.2 mph14.8 kmh 29.61 in1002.7 mb - 0.00 in0.0 mm 0.00 in0.0 mm
11:10 PM 29.1°F-1.6°C 28.1°F-2.2°C 96% 5.8 mph NE9.3 kmh NE 13.8 mph22.2 kmh 29.61 in1002.7 mb - 0.00 in0.0 mm 0.00 in0.0 mm
11:20 PM 29.0°F-1.7°C 27.7°F-2.4°C 95% 4.6 mph ENE7.4 kmh ENE 10.4 mph16.7 kmh 29.60 in1002.4 mb - 0.00 in0.0 mm 0.00 in0.0 mm
11:30 PM 28.8°F-1.8°C 27.6°F-2.4°C 95% 5.8 mph ENE9.3 kmh ENE 10.4 mph16.7 kmh 29.60 in1002.4 mb - 0.00 in0.0 mm 0.00 in0.0 mm
11:40 PM 28.5°F-1.9°C 27.3°F-2.6°C 95% 6.9 mph ENE11.1 kmh ENE 11.5 mph18.5 kmh 29.59 in1002.0 mb - 0.00 in0.0 mm 0.00 in0.0 mm
11:50 PM 28.5°F-1.9°C 27.3°F-2.6°C 95% 5.8 mph ENE9.3 kmh ENE 9.2 mph14.8 kmh 29.60 in1002.4 mb - 0.00 in0.0 mm 0.00 in0.0 mm